Wake, Virginia
Current Conditions -  °F | °C
As of 12:15 PM on Sunday 21 Dec 2014 (Local Time) from KW75 Reporting Station
Overcast Overcast  
Wind Chill: 35°   Ceiling: 7000
Heat Index: 38°   Visibility: 10mi
Dew Point: 26°   Wind: 5mph
Humidity: 61%   Direction: 340°NNW
Pressure: 30.34"   Gusts: NA
Location:  37.57°N, 76.43°W
Report Text: KW75 211715Z AUTO 34004KT 10SM OVC070 04/M03 A3034 RMK AO1 T00361034
Loading
Personal Weather Stations






























Interactive Weather Map New forecast layout! Learn more

10-Day Weather Forecast

Advertisements
Track Severe Weather on mobile